createdAt,value
2023-01-08T00:01:20.007Z,98.90
2023-01-08T00:03:47.932Z,99.50
2023-01-08T00:06:17.693Z,99.90
2023-01-08T00:08:46.385Z,99.90
2023-01-08T00:11:16.166Z,99.90
2023-01-08T00:13:44.246Z,99.90
2023-01-08T00:16:15.030Z,99.90
2023-01-08T00:18:42.914Z,99.90
2023-01-08T00:21:10.952Z,99.90
2023-01-08T00:23:38.988Z,99.90
2023-01-08T00:26:09.459Z,99.90
2023-01-08T00:28:39.758Z,99.90
2023-01-08T00:31:08.783Z,99.90
2023-01-08T00:33:37.190Z,99.90
2023-01-08T00:36:09.521Z,99.90
2023-01-08T00:38:37.342Z,99.90
2023-01-08T00:41:05.457Z,99.90
2023-01-08T00:43:33.215Z,99.90
2023-01-08T00:46:02.462Z,99.90
2023-01-08T00:48:31.049Z,99.90
2023-01-08T00:50:58.756Z,99.90
2023-01-08T00:53:26.457Z,99.90
2023-01-08T00:56:01.147Z,99.90
2023-01-08T00:58:28.891Z,99.90
2023-01-08T01:00:56.734Z,99.90
2023-01-08T01:03:26.161Z,99.90
2023-01-08T01:06:01.516Z,99.90
2023-01-08T01:08:29.299Z,99.90
2023-01-08T01:10:57.083Z,99.90
2023-01-08T01:13:24.832Z,99.90
2023-01-08T01:15:59.017Z,99.90
2023-01-08T01:18:28.554Z,99.90
2023-01-08T01:20:56.537Z,99.90
2023-01-08T01:23:24.287Z,99.90
2023-01-08T01:25:52.038Z,99.90
2023-01-08T01:28:19.789Z,99.90
2023-01-08T01:30:53.942Z,99.90
2023-01-08T01:33:21.730Z,99.90
2023-01-08T01:35:59.510Z,99.90
2023-01-08T01:38:27.281Z,99.90
2023-01-08T01:40:55.059Z,99.90
2023-01-08T01:43:36.356Z,99.90
2023-01-08T01:46:04.802Z,99.90
2023-01-08T01:48:32.700Z,99.90
2023-01-08T01:51:01.985Z,99.90
2023-01-08T01:53:34.014Z,99.90
2023-01-08T01:56:03.983Z,99.90
2023-01-08T01:58:33.731Z,99.90
2023-01-08T02:01:04.994Z,99.20
2023-01-08T02:03:36.099Z,99.00
2023-01-08T02:06:17.067Z,98.80
2023-01-08T02:08:53.441Z,98.70
2023-01-08T02:11:27.082Z,99.20
2023-01-08T02:14:03.856Z,99.60
2023-01-08T02:16:40.480Z,99.20
2023-01-08T02:19:19.438Z,99.80
2023-01-08T02:21:59.285Z,99.60
2023-01-08T02:24:38.619Z,98.80
2023-01-08T02:27:08.667Z,98.70
2023-01-08T02:29:36.820Z,98.60
2023-01-08T02:32:05.421Z,98.20
2023-01-08T02:34:33.212Z,98.00
2023-01-08T02:37:01.725Z,98.00
2023-01-08T02:39:45.761Z,98.00
2023-01-08T02:42:22.926Z,98.20
2023-01-08T02:44:58.583Z,98.50
2023-01-08T02:47:32.027Z,98.60
2023-01-08T02:50:16.571Z,98.50
2023-01-08T02:52:50.978Z,98.70
2023-01-08T02:55:21.820Z,98.10
2023-01-08T02:57:51.945Z,98.20
2023-01-08T03:00:21.176Z,97.80
2023-01-08T03:02:52.268Z,98.00
2023-01-08T03:05:26.104Z,97.80
2023-01-08T03:07:54.388Z,97.80
2023-01-08T03:10:25.813Z,97.60
2023-01-08T03:12:58.334Z,97.60
2023-01-08T03:15:32.796Z,97.80
2023-01-08T03:18:04.533Z,97.60
2023-01-08T03:20:34.212Z,97.80
2023-01-08T03:23:06.634Z,98.30
2023-01-08T03:25:37.972Z,98.60
2023-01-08T03:28:13.051Z,99.40
2023-01-08T03:30:43.237Z,99.70
2023-01-08T03:33:13.966Z,99.40
2023-01-08T03:35:44.712Z,99.40
2023-01-08T03:38:18.355Z,99.10
2023-01-08T03:40:48.604Z,99.20
2023-01-08T03:43:17.661Z,99.10
2023-01-08T03:45:50.258Z,98.80
2023-01-08T03:48:20.742Z,98.90
2023-01-08T03:50:48.972Z,99.00
2023-01-08T03:53:16.741Z,99.60
2023-01-08T03:55:44.451Z,99.20
2023-01-08T03:58:12.134Z,99.50
2023-01-08T04:00:41.193Z,99.20
2023-01-08T04:03:09.492Z,99.80
2023-01-08T04:05:37.460Z,99.90
2023-01-08T04:08:05.415Z,99.90
2023-01-08T04:10:33.260Z,99.90
2023-01-08T04:13:00.966Z,99.90
2023-01-08T04:15:28.807Z,99.90
2023-01-08T04:17:57.984Z,99.90
2023-01-08T04:20:25.765Z,99.90
2023-01-08T04:22:53.507Z,99.90
2023-01-08T04:25:21.268Z,99.90
2023-01-08T04:27:49.065Z,99.90
2023-01-08T04:30:16.870Z,99.90
2023-01-08T04:32:44.590Z,99.90
2023-01-08T04:35:13.715Z,99.90
2023-01-08T04:37:41.468Z,99.90
2023-01-08T04:40:10.453Z,99.90
2023-01-08T04:42:38.285Z,99.90
2023-01-08T04:45:07.735Z,99.90
2023-01-08T04:47:35.430Z,99.90
2023-01-08T04:50:03.174Z,99.90
2023-01-08T04:52:32.241Z,99.90
2023-01-08T04:55:00.017Z,99.90
2023-01-08T04:57:27.738Z,99.90
2023-01-08T04:59:55.431Z,99.90
2023-01-08T05:02:23.310Z,99.90
2023-01-08T05:04:51.083Z,99.90
2023-01-08T05:07:18.810Z,99.90
2023-01-08T05:09:47.845Z,99.90
2023-01-08T05:12:15.561Z,99.90
2023-01-08T05:14:43.335Z,99.90
2023-01-08T05:17:11.427Z,99.90
2023-01-08T05:19:39.145Z,99.90
2023-01-08T05:22:06.838Z,99.90
2023-01-08T05:24:34.549Z,99.90
2023-01-08T05:27:03.691Z,99.90
2023-01-08T05:29:31.417Z,99.90
2023-01-08T05:31:59.202Z,99.90
2023-01-08T05:34:27.140Z,99.90
2023-01-08T05:36:54.895Z,99.90
2023-01-08T05:39:22.660Z,99.90
2023-01-08T05:41:50.410Z,99.90
2023-01-08T05:44:19.509Z,99.90
2023-01-08T05:46:47.239Z,99.90
2023-01-08T05:49:16.884Z,99.90
2023-01-08T05:51:44.739Z,99.90
2023-01-08T05:54:12.558Z,99.90
2023-01-08T05:56:40.342Z,99.90
2023-01-08T05:59:08.095Z,99.90
2023-01-08T06:01:37.293Z,99.90
2023-01-08T06:04:05.235Z,99.90
2023-01-08T06:06:33.222Z,99.90
2023-01-08T06:09:00.987Z,99.90
2023-01-08T06:11:28.779Z,99.90
2023-01-08T06:13:56.551Z,99.90
2023-01-08T06:16:24.322Z,99.90
2023-01-08T06:18:53.382Z,99.90
2023-01-08T06:21:21.112Z,99.90
2023-01-08T06:23:48.825Z,99.90
2023-01-08T06:26:16.553Z,99.90
2023-01-08T06:28:44.420Z,99.90
2023-01-08T06:31:12.184Z,99.90
2023-01-08T06:33:40.146Z,99.90
2023-01-08T06:36:09.994Z,99.90
2023-01-08T06:38:38.351Z,99.90
2023-01-08T06:41:07.025Z,99.90
2023-01-08T06:43:36.277Z,99.90
2023-01-08T06:46:04.604Z,99.90
2023-01-08T06:48:32.678Z,99.90
2023-01-08T06:51:01.245Z,99.90
2023-01-08T06:53:30.452Z,99.90
2023-01-08T06:55:58.689Z,99.90
2023-01-08T06:58:27.949Z,99.90
2023-01-08T07:00:55.734Z,99.90
2023-01-08T07:03:23.523Z,99.90
2023-01-08T07:05:51.548Z,99.90
2023-01-08T07:08:20.163Z,99.90
2023-01-08T07:10:49.873Z,99.90
2023-01-08T07:13:17.644Z,99.90
2023-01-08T07:15:45.390Z,99.90
2023-01-08T07:18:14.041Z,99.90
2023-01-08T07:20:41.957Z,99.90
2023-01-08T07:23:12.476Z,99.90
2023-01-08T07:25:40.665Z,99.90
2023-01-08T07:28:13.559Z,99.90
2023-01-08T07:30:41.292Z,99.90
2023-01-08T07:33:09.068Z,99.90
2023-01-08T07:35:38.292Z,99.90
2023-01-08T07:38:06.759Z,99.90
2023-01-08T07:40:34.607Z,99.90
2023-01-08T07:43:03.931Z,99.90
2023-01-08T07:45:34.082Z,99.90
2023-01-08T07:48:02.079Z,99.90
2023-01-08T07:50:29.836Z,99.90
2023-01-08T07:53:00.653Z,99.90
2023-01-08T07:55:30.073Z,99.90
2023-01-08T07:57:57.847Z,99.90
2023-01-08T08:00:25.754Z,99.90
2023-01-08T08:02:54.973Z,99.90
2023-01-08T08:05:22.802Z,99.90
2023-01-08T08:07:50.537Z,99.90
2023-01-08T08:10:18.394Z,99.90
2023-01-08T08:12:46.489Z,99.90
2023-01-08T08:15:14.250Z,99.90
2023-01-08T08:17:45.853Z,99.90
2023-01-08T08:20:15.116Z,99.90
2023-01-08T08:22:42.952Z,99.90
2023-01-08T08:25:11.405Z,99.90
2023-01-08T08:27:39.296Z,99.90
2023-01-08T08:30:08.424Z,99.90
2023-01-08T08:32:36.365Z,99.90
2023-01-08T08:35:04.937Z,99.90
2023-01-08T08:37:34.037Z,99.90
2023-01-08T08:40:01.902Z,99.90
2023-01-08T08:42:29.653Z,99.90
2023-01-08T08:44:57.414Z,99.90
2023-01-08T08:47:25.184Z,99.90
2023-01-08T08:49:53.013Z,99.90
2023-01-08T08:52:20.896Z,99.90
2023-01-08T08:54:50.010Z,99.90
2023-01-08T08:57:17.818Z,99.90
2023-01-08T08:59:45.522Z,99.90
2023-01-08T09:02:15.696Z,99.90
2023-01-08T09:04:45.614Z,99.90
2023-01-08T09:07:15.395Z,99.90
2023-01-08T09:09:45.131Z,99.90
2023-01-08T09:12:16.556Z,99.90
2023-01-08T09:14:46.212Z,99.90
2023-01-08T09:17:15.889Z,99.90
2023-01-08T09:19:45.539Z,99.90
2023-01-08T09:22:15.405Z,99.90
2023-01-08T09:24:45.190Z,99.90
2023-01-08T09:27:16.790Z,99.90
2023-01-08T09:29:46.210Z,99.90
2023-01-08T09:32:15.803Z,99.90
2023-01-08T09:34:45.732Z,99.90
2023-01-08T09:37:15.442Z,99.90
2023-01-08T09:39:50.970Z,99.90
2023-01-08T09:42:28.372Z,99.90
2023-01-08T09:44:59.766Z,99.90
2023-01-08T09:47:31.755Z,99.90
2023-01-08T09:50:03.005Z,99.90
2023-01-08T09:52:33.973Z,99.90
2023-01-08T09:55:03.779Z,99.90
2023-01-08T09:57:33.044Z,99.90
2023-01-08T10:00:00.852Z,99.90
2023-01-08T10:02:31.181Z,99.90
2023-01-08T10:05:02.999Z,99.90
2023-01-08T10:07:31.267Z,99.90
2023-01-08T10:09:59.068Z,99.90
2023-01-08T10:12:28.703Z,99.90
2023-01-08T10:15:01.085Z,99.90
2023-01-08T10:17:32.957Z,99.90
2023-01-08T10:20:00.805Z,99.90
2023-01-08T10:22:33.284Z,99.90
2023-01-08T10:25:08.091Z,99.90
2023-01-08T10:27:46.433Z,99.90
2023-01-08T10:30:19.711Z,99.90
2023-01-08T10:32:54.623Z,99.90
2023-01-08T10:35:25.517Z,99.90
2023-01-08T10:37:53.377Z,99.90
2023-01-08T10:40:29.373Z,99.90
2023-01-08T10:43:10.040Z,99.90
2023-01-08T10:45:40.691Z,99.90
2023-01-08T10:48:16.161Z,99.90
2023-01-08T10:50:44.020Z,99.90
2023-01-08T10:53:26.414Z,99.90
2023-01-08T10:56:01.620Z,99.90
2023-01-08T10:58:30.509Z,99.90
2023-01-08T11:01:10.865Z,99.90
2023-01-08T11:03:38.725Z,99.90
2023-01-08T11:06:12.833Z,99.90
2023-01-08T11:08:41.112Z,99.90
2023-01-08T11:11:10.996Z,99.90
2023-01-08T11:13:39.579Z,99.90
2023-01-08T11:16:11.473Z,99.90
2023-01-08T11:18:46.222Z,99.90
2023-01-08T11:21:21.587Z,99.90
2023-01-08T11:24:00.551Z,99.90
2023-01-08T11:26:29.895Z,99.90
2023-01-08T11:29:05.007Z,99.90
2023-01-08T11:31:41.217Z,99.90
2023-01-08T11:34:17.019Z,99.90
2023-01-08T11:36:50.024Z,99.90
2023-01-08T11:39:18.385Z,99.90
2023-01-08T11:42:03.919Z,99.90
2023-01-08T11:44:43.946Z,99.90
2023-01-08T11:47:20.747Z,99.90
2023-01-08T11:50:10.992Z,99.90
2023-01-08T11:52:47.094Z,99.90
2023-01-08T11:55:29.824Z,99.90
2023-01-08T11:58:23.063Z,99.90
2023-01-08T12:01:00.787Z,99.90
2023-01-08T12:03:35.686Z,99.90
2023-01-08T12:06:14.388Z,99.90
2023-01-08T12:08:49.681Z,99.90
2023-01-08T12:11:25.939Z,99.90
2023-01-08T12:14:14.817Z,99.90
2023-01-08T12:17:04.173Z,99.90
2023-01-08T12:19:52.949Z,99.90
2023-01-08T12:22:33.107Z,99.90
2023-01-08T12:25:34.088Z,99.90
2023-01-08T12:28:28.465Z,99.90
2023-01-08T12:31:20.959Z,99.90
2023-01-08T12:33:53.057Z,99.90
2023-01-08T12:36:26.713Z,99.90
2023-01-08T12:39:03.062Z,99.90
2023-01-08T12:41:35.398Z,99.90
2023-01-08T12:44:05.265Z,99.90
2023-01-08T12:46:36.362Z,99.90
2023-01-08T12:49:06.736Z,99.90
2023-01-08T12:51:39.181Z,99.90
2023-01-08T12:54:17.672Z,99.90
2023-01-08T12:56:50.914Z,99.90
2023-01-08T12:59:38.494Z,99.90
2023-01-08T13:02:19.598Z,99.90
2023-01-08T13:04:48.648Z,99.90
2023-01-08T13:07:22.326Z,99.90
2023-01-08T13:09:56.717Z,99.90
2023-01-08T13:12:35.917Z,99.90
2023-01-08T13:15:04.612Z,99.90
2023-01-08T13:17:32.718Z,99.90
2023-01-08T13:20:02.616Z,99.90
2023-01-08T13:22:34.072Z,99.90
2023-01-08T13:25:29.180Z,99.90
2023-01-08T13:27:57.673Z,99.90
2023-01-08T13:30:39.204Z,99.90
2023-01-08T13:33:43.201Z,99.90
2023-01-08T13:36:21.164Z,99.90
2023-01-08T13:39:05.903Z,99.90
2023-01-08T13:41:36.099Z,99.90
2023-01-08T13:44:06.557Z,99.90
2023-01-08T13:46:37.787Z,99.90
2023-01-08T13:49:07.731Z,99.90
2023-01-08T13:51:42.754Z,99.90
2023-01-08T13:54:32.323Z,99.90
2023-01-08T13:57:06.787Z,99.90
2023-01-08T13:59:42.996Z,99.90
2023-01-08T14:02:29.661Z,99.90
2023-01-08T14:04:58.666Z,99.90
2023-01-08T14:07:27.046Z,99.90
2023-01-08T14:10:08.471Z,99.90
2023-01-08T14:12:36.633Z,99.90
2023-01-08T14:15:09.937Z,99.90
2023-01-08T14:17:37.879Z,99.90
2023-01-08T14:20:11.520Z,99.90
2023-01-08T14:22:40.093Z,99.90
2023-01-08T14:25:15.206Z,99.90
2023-01-08T14:27:42.944Z,99.90
2023-01-08T14:30:18.412Z,99.90
2023-01-08T14:32:46.277Z,99.90
2023-01-08T14:35:17.918Z,99.90
2023-01-08T14:37:45.736Z,99.90
2023-01-08T14:40:28.307Z,99.90
2023-01-08T14:42:56.196Z,99.90
2023-01-08T14:45:27.230Z,99.90
2023-01-08T14:47:57.822Z,99.90
2023-01-08T14:50:27.682Z,99.90
2023-01-08T14:52:59.463Z,99.90
2023-01-08T14:55:30.013Z,99.90
2023-01-08T14:57:58.263Z,99.90
2023-01-08T15:00:28.239Z,99.90
2023-01-08T15:02:56.597Z,99.90
2023-01-08T15:05:28.738Z,99.90
2023-01-08T15:07:59.611Z,99.90
2023-01-08T15:10:58.052Z,99.90
2023-01-08T15:13:30.788Z,99.90
2023-01-08T15:16:01.809Z,99.90
2023-01-08T15:18:29.613Z,99.90
2023-01-08T15:20:58.000Z,99.90
2023-01-08T15:23:33.480Z,99.90
2023-01-08T15:26:02.691Z,99.90
2023-01-08T15:28:30.452Z,99.90
2023-01-08T15:30:58.385Z,99.90
2023-01-08T15:33:27.209Z,99.90
2023-01-08T15:35:54.978Z,99.90
2023-01-08T15:38:23.901Z,99.90
2023-01-08T15:40:53.150Z,99.90
2023-01-08T15:43:27.388Z,99.90
2023-01-08T15:45:55.102Z,99.90
2023-01-08T15:48:22.855Z,99.90
2023-01-08T15:50:51.664Z,99.90
2023-01-08T15:53:22.192Z,99.90
2023-01-08T15:55:50.749Z,99.90
2023-01-08T15:58:18.829Z,99.90
2023-01-08T16:00:48.392Z,99.90
2023-01-08T16:03:17.237Z,99.90
2023-01-08T16:05:45.051Z,99.90
2023-01-08T16:08:12.975Z,99.90
2023-01-08T16:10:40.673Z,99.90
2023-01-08T16:13:10.312Z,99.90
2023-01-08T16:15:40.184Z,99.90
2023-01-08T16:18:09.242Z,99.90
2023-01-08T16:20:37.189Z,99.90
2023-01-08T16:23:05.219Z,99.90
2023-01-08T16:25:32.966Z,99.90
2023-01-08T16:28:01.036Z,99.90
2023-01-08T16:30:28.879Z,99.90
2023-01-08T16:32:56.584Z,99.90
2023-01-08T16:35:25.628Z,99.90
2023-01-08T16:37:53.382Z,99.90
2023-01-08T16:40:21.229Z,99.90
2023-01-08T16:42:48.966Z,99.90
2023-01-08T16:45:16.909Z,99.90
2023-01-08T16:47:44.648Z,99.90
2023-01-08T16:50:13.646Z,99.90
2023-01-08T16:52:42.905Z,99.90
2023-01-08T16:55:11.728Z,99.90
2023-01-08T16:57:39.783Z,99.90
2023-01-08T17:00:09.006Z,99.90
2023-01-08T17:02:38.091Z,99.90
2023-01-08T17:05:06.866Z,99.90
2023-01-08T17:07:35.289Z,99.90
2023-01-08T17:10:04.983Z,99.90
2023-01-08T17:12:32.919Z,99.90
2023-01-08T17:15:00.717Z,99.90
2023-01-08T17:17:28.524Z,99.90
2023-01-08T17:19:56.241Z,99.90
2023-01-08T17:22:24.026Z,99.90
2023-01-08T17:24:51.830Z,99.90
2023-01-08T17:27:21.116Z,99.90
2023-01-08T17:29:49.087Z,99.90
2023-01-08T17:32:16.872Z,99.90
2023-01-08T17:34:44.620Z,99.90
2023-01-08T17:37:12.417Z,99.90
2023-01-08T17:39:40.186Z,99.90
2023-01-08T17:42:27.427Z,99.90
2023-01-08T17:44:58.616Z,99.90
2023-01-08T17:47:26.940Z,99.90
2023-01-08T17:49:56.425Z,99.90
2023-01-08T17:52:26.325Z,99.90
2023-01-08T17:54:54.302Z,99.90
2023-01-08T17:57:22.656Z,99.90
2023-01-08T17:59:50.740Z,99.90
2023-01-08T18:02:20.041Z,99.90
2023-01-08T18:04:48.311Z,99.90
2023-01-08T18:07:16.182Z,99.90
2023-01-08T18:09:44.744Z,99.90
2023-01-08T18:12:12.613Z,99.90
2023-01-08T18:14:41.411Z,99.90
2023-01-08T18:17:09.216Z,99.90
2023-01-08T18:19:38.588Z,99.90
2023-01-08T18:22:06.527Z,99.90
2023-01-08T18:24:34.938Z,99.90
2023-01-08T18:27:03.506Z,99.90
2023-01-08T18:29:31.649Z,99.90
2023-01-08T18:31:59.504Z,99.90
2023-01-08T18:34:27.311Z,99.90
2023-01-08T18:36:56.603Z,99.90
2023-01-08T18:39:26.568Z,99.90
2023-01-08T18:42:11.906Z,99.90
2023-01-08T18:44:39.623Z,99.90
2023-01-08T18:47:07.371Z,99.90
2023-01-08T18:49:35.248Z,99.90
2023-01-08T18:52:04.512Z,99.90
2023-01-08T18:54:33.755Z,99.90
2023-01-08T18:57:03.079Z,99.90
2023-01-08T18:59:30.863Z,99.90
2023-01-08T19:01:59.065Z,99.90
2023-01-08T19:04:26.974Z,99.90
2023-01-08T19:06:54.748Z,99.90
2023-01-08T19:09:24.238Z,99.90
2023-01-08T19:11:52.137Z,99.90
2023-01-08T19:14:20.196Z,99.90
2023-01-08T19:16:51.383Z,99.90
2023-01-08T19:19:19.492Z,99.90
2023-01-08T19:21:47.344Z,99.90
2023-01-08T19:24:15.403Z,99.90
2023-01-08T19:26:44.523Z,99.90
2023-01-08T19:29:12.584Z,99.90
2023-01-08T19:31:40.362Z,99.90
2023-01-08T19:34:08.253Z,99.90
2023-01-08T19:36:36.256Z,99.90
2023-01-08T19:39:05.279Z,99.90
2023-01-08T19:41:50.711Z,99.90
2023-01-08T19:44:19.852Z,99.90
2023-01-08T19:46:47.618Z,99.90
2023-01-08T19:49:15.433Z,99.90
2023-01-08T19:51:43.291Z,99.90
2023-01-08T19:54:13.049Z,99.90
2023-01-08T19:56:40.810Z,99.90
2023-01-08T19:59:08.598Z,99.90
2023-01-08T20:01:38.894Z,99.90
2023-01-08T20:04:06.657Z,99.90
2023-01-08T20:06:35.038Z,99.90
2023-01-08T20:09:03.414Z,99.90
2023-01-08T20:11:31.510Z,99.90
2023-01-08T20:14:00.436Z,99.90
2023-01-08T20:16:29.663Z,99.90
2023-01-08T20:19:01.967Z,99.90
2023-01-08T20:21:29.995Z,99.90
2023-01-08T20:24:02.542Z,99.90
2023-01-08T20:26:32.658Z,99.90
2023-01-08T20:29:00.534Z,99.90
2023-01-08T20:31:31.140Z,99.90
2023-01-08T20:34:02.042Z,99.90
2023-01-08T20:36:33.269Z,99.90
2023-01-08T20:39:02.727Z,99.90
2023-01-08T20:41:30.995Z,99.90
2023-01-08T20:43:59.110Z,99.90
2023-01-08T20:46:29.379Z,99.90
2023-01-08T20:48:59.582Z,99.90
2023-01-08T20:51:28.720Z,99.90
2023-01-08T20:53:56.527Z,99.90
2023-01-08T20:56:24.623Z,99.90
2023-01-08T20:58:52.434Z,99.90
2023-01-08T21:01:23.180Z,99.90
2023-01-08T21:03:55.133Z,99.90
2023-01-08T21:06:25.525Z,99.90
2023-01-08T21:08:56.661Z,99.90
2023-01-08T21:11:25.995Z,99.90
2023-01-08T21:13:54.111Z,99.90
2023-01-08T21:16:24.356Z,99.90
2023-01-08T21:18:53.988Z,99.90
2023-01-08T21:21:23.957Z,99.90
2023-01-08T21:23:52.116Z,99.90
2023-01-08T21:26:21.299Z,99.90
2023-01-08T21:28:49.712Z,99.90
2023-01-08T21:31:20.358Z,99.90
2023-01-08T21:33:50.245Z,99.90
2023-01-08T21:36:20.526Z,99.90
2023-01-08T21:38:48.942Z,99.90
2023-01-08T21:41:33.070Z,99.90
2023-01-08T21:44:20.569Z,99.90
2023-01-08T21:46:48.673Z,99.90
2023-01-08T21:49:16.668Z,99.90
2023-01-08T21:52:02.702Z,99.90
2023-01-08T21:54:30.771Z,99.90
2023-01-08T21:56:58.568Z,99.90
2023-01-08T21:59:27.801Z,99.90
2023-01-08T22:01:55.614Z,99.90
2023-01-08T22:04:23.530Z,99.90
2023-01-08T22:06:53.361Z,99.90
2023-01-08T22:09:21.177Z,99.90
2023-01-08T22:11:49.084Z,99.90
2023-01-08T22:14:17.788Z,99.90
2023-01-08T22:16:46.917Z,99.90
2023-01-08T22:19:14.674Z,99.90
2023-01-08T22:21:42.593Z,99.90
2023-01-08T22:24:10.435Z,99.90
2023-01-08T22:26:38.576Z,99.90
2023-01-08T22:29:06.604Z,99.90
2023-01-08T22:31:34.814Z,99.90
2023-01-08T22:34:04.186Z,99.90
2023-01-08T22:36:31.952Z,99.90
2023-01-08T22:38:59.747Z,99.90
2023-01-08T22:41:27.485Z,99.90
2023-01-08T22:43:56.836Z,99.90
2023-01-08T22:46:25.809Z,99.90
2023-01-08T22:48:53.679Z,99.90
2023-01-08T22:51:25.241Z,99.90
2023-01-08T22:53:55.437Z,99.90
2023-01-08T22:56:23.887Z,99.90
2023-01-08T22:58:52.187Z,99.90
2023-01-08T23:01:23.214Z,99.90
2023-01-08T23:03:52.163Z,99.90
2023-01-08T23:06:22.939Z,99.90
2023-01-08T23:08:50.856Z,99.90
2023-01-08T23:11:20.863Z,99.90
2023-01-08T23:13:49.174Z,99.90
2023-01-08T23:16:18.362Z,99.90
2023-01-08T23:18:46.119Z,99.90
2023-01-08T23:21:16.221Z,99.90
2023-01-08T23:23:46.010Z,99.90
2023-01-08T23:26:17.834Z,99.90
2023-01-08T23:28:46.391Z,99.90
2023-01-08T23:31:16.811Z,99.90
2023-01-08T23:33:44.666Z,99.90
2023-01-08T23:36:17.967Z,99.90
2023-01-08T23:38:47.917Z,99.90
2023-01-08T23:41:16.688Z,99.90
2023-01-08T23:43:45.836Z,99.90
2023-01-08T23:46:14.298Z,99.90
2023-01-08T23:48:42.824Z,99.90
2023-01-08T23:51:10.582Z,99.90
2023-01-08T23:53:38.395Z,99.90
2023-01-08T23:56:08.416Z,99.90
2023-01-08T23:58:36.807Z,99.90
